sensor_id;sensor_type;location;lat;lon;timestamp;P1;durP1;ratioP1;P2;durP2;ratioP2
75774;SDS011;64505;51.458;7.556;2023-03-01T00:00:34;11.20;;;4.82;;
75774;SDS011;64505;51.458;7.556;2023-03-01T00:02:35;11.43;;;5.00;;
75774;SDS011;64505;51.458;7.556;2023-03-01T00:04:37;8.30;;;4.75;;
75774;SDS011;64505;51.458;7.556;2023-03-01T00:06:39;10.80;;;4.90;;
75774;SDS011;64505;51.458;7.556;2023-03-01T00:08:40;8.00;;;4.68;;
75774;SDS011;64505;51.458;7.556;2023-03-01T00:10:42;8.98;;;5.32;;
75774;SDS011;64505;51.458;7.556;2023-03-01T00:12:44;8.95;;;5.05;;
75774;SDS011;64505;51.458;7.556;2023-03-01T00:14:45;8.52;;;5.50;;
75774;SDS011;64505;51.458;7.556;2023-03-01T00:16:47;12.15;;;5.47;;
75774;SDS011;64505;51.458;7.556;2023-03-01T00:18:48;11.35;;;5.20;;
75774;SDS011;64505;51.458;7.556;2023-03-01T00:20:53;10.15;;;5.20;;
75774;SDS011;64505;51.458;7.556;2023-03-01T00:22:56;10.93;;;5.47;;
75774;SDS011;64505;51.458;7.556;2023-03-01T00:24:57;8.77;;;5.20;;
75774;SDS011;64505;51.458;7.556;2023-03-01T00:26:59;10.20;;;6.05;;
75774;SDS011;64505;51.458;7.556;2023-03-01T00:29:00;8.68;;;5.60;;
75774;SDS011;64505;51.458;7.556;2023-03-01T00:31:06;9.80;;;5.75;;
75774;SDS011;64505;51.458;7.556;2023-03-01T00:33:09;10.18;;;5.45;;
75774;SDS011;64505;51.458;7.556;2023-03-01T00:35:10;10.93;;;5.43;;
75774;SDS011;64505;51.458;7.556;2023-03-01T00:37:12;9.63;;;5.15;;
75774;SDS011;64505;51.458;7.556;2023-03-01T00:39:14;10.07;;;5.63;;
75774;SDS011;64505;51.458;7.556;2023-03-01T00:41:16;10.23;;;5.60;;
75774;SDS011;64505;51.458;7.556;2023-03-01T00:43:19;8.98;;;4.90;;
75774;SDS011;64505;51.458;7.556;2023-03-01T00:45:21;12.85;;;5.50;;
75774;SDS011;64505;51.458;7.556;2023-03-01T00:47:23;10.63;;;5.32;;
75774;SDS011;64505;51.458;7.556;2023-03-01T00:49:24;12.90;;;5.57;;
75774;SDS011;64505;51.458;7.556;2023-03-01T00:51:28;11.50;;;6.10;;
75774;SDS011;64505;51.458;7.556;2023-03-01T00:53:30;13.45;;;6.05;;
75774;SDS011;64505;51.458;7.556;2023-03-01T00:55:31;13.10;;;5.70;;
75774;SDS011;64505;51.458;7.556;2023-03-01T00:57:33;12.13;;;5.30;;
75774;SDS011;64505;51.458;7.556;2023-03-01T00:59:35;10.18;;;5.60;;
75774;SDS011;64505;51.458;7.556;2023-03-01T01:01:36;11.57;;;5.60;;
75774;SDS011;64505;51.458;7.556;2023-03-01T01:03:38;14.00;;;5.80;;
75774;SDS011;64505;51.458;7.556;2023-03-01T01:05:39;11.63;;;5.57;;
75774;SDS011;64505;51.458;7.556;2023-03-01T01:07:40;9.68;;;5.38;;
75774;SDS011;64505;51.458;7.556;2023-03-01T01:09:42;13.70;;;6.03;;
75774;SDS011;64505;51.458;7.556;2023-03-01T01:11:44;12.50;;;5.22;;
75774;SDS011;64505;51.458;7.556;2023-03-01T01:13:50;11.63;;;6.00;;
75774;SDS011;64505;51.458;7.556;2023-03-01T01:15:52;10.35;;;5.18;;
75774;SDS011;64505;51.458;7.556;2023-03-01T01:17:53;11.23;;;5.38;;
75774;SDS011;64505;51.458;7.556;2023-03-01T01:19:55;9.88;;;5.38;;
75774;SDS011;64505;51.458;7.556;2023-03-01T01:21:57;9.23;;;5.75;;
75774;SDS011;64505;51.458;7.556;2023-03-01T01:23:58;9.20;;;5.22;;
75774;SDS011;64505;51.458;7.556;2023-03-01T01:26:03;11.65;;;5.57;;
75774;SDS011;64505;51.458;7.556;2023-03-01T01:28:06;10.88;;;5.53;;
75774;SDS011;64505;51.458;7.556;2023-03-01T01:30:08;10.65;;;5.25;;
75774;SDS011;64505;51.458;7.556;2023-03-01T01:32:10;10.55;;;5.68;;
75774;SDS011;64505;51.458;7.556;2023-03-01T01:34:19;9.57;;;4.93;;
75774;SDS011;64505;51.458;7.556;2023-03-01T01:36:22;9.52;;;4.82;;
75774;SDS011;64505;51.458;7.556;2023-03-01T01:38:24;9.43;;;5.22;;
75774;SDS011;64505;51.458;7.556;2023-03-01T01:40:25;10.43;;;5.20;;
75774;SDS011;64505;51.458;7.556;2023-03-01T01:42:27;9.45;;;5.35;;
75774;SDS011;64505;51.458;7.556;2023-03-01T01:44:29;11.13;;;5.40;;
75774;SDS011;64505;51.458;7.556;2023-03-01T01:46:31;11.27;;;6.00;;
75774;SDS011;64505;51.458;7.556;2023-03-01T01:48:39;11.68;;;5.53;;
75774;SDS011;64505;51.458;7.556;2023-03-01T01:50:44;13.30;;;6.00;;
75774;SDS011;64505;51.458;7.556;2023-03-01T01:52:48;11.15;;;5.78;;
75774;SDS011;64505;51.458;7.556;2023-03-01T01:54:55;10.57;;;5.45;;
75774;SDS011;64505;51.458;7.556;2023-03-01T01:57:39;15.70;;;5.68;;
75774;SDS011;64505;51.458;7.556;2023-03-01T01:59:50;10.80;;;5.68;;
75774;SDS011;64505;51.458;7.556;2023-03-01T02:01:56;12.25;;;5.80;;
75774;SDS011;64505;51.458;7.556;2023-03-01T02:04:00;11.13;;;5.80;;
75774;SDS011;64505;51.458;7.556;2023-03-01T02:08:35;10.35;;;5.30;;
75774;SDS011;64505;51.458;7.556;2023-03-01T02:10:39;11.43;;;6.32;;
75774;SDS011;64505;51.458;7.556;2023-03-01T02:12:41;13.55;;;5.55;;
75774;SDS011;64505;51.458;7.556;2023-03-01T02:14:43;13.27;;;5.80;;
75774;SDS011;64505;51.458;7.556;2023-03-01T02:16:45;14.35;;;6.30;;
75774;SDS011;64505;51.458;7.556;2023-03-01T02:18:47;14.43;;;6.55;;
75774;SDS011;64505;51.458;7.556;2023-03-01T02:21:01;10.77;;;5.60;;
75774;SDS011;64505;51.458;7.556;2023-03-01T02:23:06;16.60;;;5.93;;
75774;SDS011;64505;51.458;7.556;2023-03-01T02:27:19;13.68;;;6.07;;
75774;SDS011;64505;51.458;7.556;2023-03-01T02:29:27;12.57;;;5.63;;
75774;SDS011;64505;51.458;7.556;2023-03-01T02:31:29;13.25;;;6.05;;
75774;SDS011;64505;51.458;7.556;2023-03-01T02:33:42;9.50;;;5.35;;
75774;SDS011;64505;51.458;7.556;2023-03-01T02:35:46;13.68;;;6.40;;
75774;SDS011;64505;51.458;7.556;2023-03-01T02:37:48;12.68;;;6.35;;
75774;SDS011;64505;51.458;7.556;2023-03-01T02:39:49;10.85;;;5.43;;
75774;SDS011;64505;51.458;7.556;2023-03-01T02:41:58;12.98;;;6.00;;
75774;SDS011;64505;51.458;7.556;2023-03-01T02:44:01;12.15;;;5.80;;
75774;SDS011;64505;51.458;7.556;2023-03-01T02:46:05;15.13;;;6.53;;
75774;SDS011;64505;51.458;7.556;2023-03-01T02:48:09;10.93;;;5.60;;
75774;SDS011;64505;51.458;7.556;2023-03-01T02:50:39;14.35;;;6.43;;
75774;SDS011;64505;51.458;7.556;2023-03-01T02:55:15;11.75;;;5.70;;
75774;SDS011;64505;51.458;7.556;2023-03-01T02:57:18;11.23;;;5.78;;
75774;SDS011;64505;51.458;7.556;2023-03-01T02:59:21;11.55;;;5.88;;
75774;SDS011;64505;51.458;7.556;2023-03-01T03:01:25;10.35;;;5.65;;
75774;SDS011;64505;51.458;7.556;2023-03-01T03:03:37;12.45;;;5.78;;
75774;SDS011;64505;51.458;7.556;2023-03-01T03:05:38;11.25;;;5.82;;
75774;SDS011;64505;51.458;7.556;2023-03-01T03:07:41;13.35;;;6.90;;
75774;SDS011;64505;51.458;7.556;2023-03-01T03:09:44;12.77;;;5.60;;
75774;SDS011;64505;51.458;7.556;2023-03-01T03:11:45;12.90;;;5.25;;
75774;SDS011;64505;51.458;7.556;2023-03-01T03:13:47;11.20;;;6.40;;
75774;SDS011;64505;51.458;7.556;2023-03-01T03:15:49;13.13;;;6.90;;
75774;SDS011;64505;51.458;7.556;2023-03-01T03:17:50;11.73;;;5.63;;
75774;SDS011;64505;51.458;7.556;2023-03-01T03:19:53;11.07;;;5.32;;
75774;SDS011;64505;51.458;7.556;2023-03-01T03:21:55;11.63;;;6.13;;
75774;SDS011;64505;51.458;7.556;2023-03-01T03:23:56;11.73;;;5.88;;
75774;SDS011;64505;51.458;7.556;2023-03-01T03:25:59;13.05;;;6.53;;
75774;SDS011;64505;51.458;7.556;2023-03-01T03:28:00;13.65;;;6.15;;
75774;SDS011;64505;51.458;7.556;2023-03-01T03:30:02;11.98;;;5.65;;
75774;SDS011;64505;51.458;7.556;2023-03-01T03:32:04;11.82;;;5.75;;
75774;SDS011;64505;51.458;7.556;2023-03-01T03:34:05;14.77;;;6.85;;
75774;SDS011;64505;51.458;7.556;2023-03-01T03:36:07;13.45;;;6.50;;
75774;SDS011;64505;51.458;7.556;2023-03-01T03:38:14;14.70;;;6.50;;
75774;SDS011;64505;51.458;7.556;2023-03-01T03:40:18;11.82;;;5.78;;
75774;SDS011;64505;51.458;7.556;2023-03-01T03:42:20;11.23;;;5.38;;
75774;SDS011;64505;51.458;7.556;2023-03-01T03:44:23;12.25;;;5.97;;
75774;SDS011;64505;51.458;7.556;2023-03-01T03:46:24;15.75;;;6.22;;
75774;SDS011;64505;51.458;7.556;2023-03-01T03:48:26;10.15;;;5.68;;
75774;SDS011;64505;51.458;7.556;2023-03-01T03:50:28;13.13;;;6.07;;
75774;SDS011;64505;51.458;7.556;2023-03-01T03:52:30;10.85;;;5.82;;
75774;SDS011;64505;51.458;7.556;2023-03-01T03:54:31;13.07;;;6.50;;
75774;SDS011;64505;51.458;7.556;2023-03-01T03:56:33;10.77;;;5.97;;
75774;SDS011;64505;51.458;7.556;2023-03-01T03:58:34;14.73;;;6.22;;
75774;SDS011;64505;51.458;7.556;2023-03-01T04:00:40;11.02;;;6.50;;
75774;SDS011;64505;51.458;7.556;2023-03-01T04:02:43;11.82;;;6.00;;
75774;SDS011;64505;51.458;7.556;2023-03-01T04:04:45;11.75;;;5.68;;
75774;SDS011;64505;51.458;7.556;2023-03-01T04:06:47;10.77;;;6.10;;
75774;SDS011;64505;51.458;7.556;2023-03-01T04:08:49;11.68;;;5.80;;
75774;SDS011;64505;51.458;7.556;2023-03-01T04:10:52;12.32;;;6.13;;
75774;SDS011;64505;51.458;7.556;2023-03-01T04:12:58;11.80;;;5.53;;
75774;SDS011;64505;51.458;7.556;2023-03-01T04:15:00;12.40;;;6.07;;
75774;SDS011;64505;51.458;7.556;2023-03-01T04:17:02;11.48;;;6.05;;
75774;SDS011;64505;51.458;7.556;2023-03-01T04:19:06;11.82;;;5.97;;
75774;SDS011;64505;51.458;7.556;2023-03-01T04:21:07;12.27;;;5.53;;
75774;SDS011;64505;51.458;7.556;2023-03-01T04:23:09;14.57;;;5.97;;
75774;SDS011;64505;51.458;7.556;2023-03-01T04:25:17;13.20;;;5.95;;
75774;SDS011;64505;51.458;7.556;2023-03-01T04:27:18;10.55;;;5.80;;
75774;SDS011;64505;51.458;7.556;2023-03-01T04:29:20;11.05;;;5.95;;
75774;SDS011;64505;51.458;7.556;2023-03-01T04:31:21;11.95;;;5.88;;
75774;SDS011;64505;51.458;7.556;2023-03-01T04:33:23;17.02;;;6.00;;
75774;SDS011;64505;51.458;7.556;2023-03-01T04:35:26;13.25;;;6.75;;
75774;SDS011;64505;51.458;7.556;2023-03-01T04:37:28;15.15;;;6.68;;
75774;SDS011;64505;51.458;7.556;2023-03-01T04:39:30;13.93;;;6.10;;
75774;SDS011;64505;51.458;7.556;2023-03-01T04:41:32;12.15;;;5.82;;
75774;SDS011;64505;51.458;7.556;2023-03-01T04:43:33;14.65;;;7.47;;
75774;SDS011;64505;51.458;7.556;2023-03-01T04:45:35;15.00;;;6.72;;
75774;SDS011;64505;51.458;7.556;2023-03-01T04:47:37;13.90;;;6.45;;
75774;SDS011;64505;51.458;7.556;2023-03-01T04:49:39;13.43;;;6.78;;
75774;SDS011;64505;51.458;7.556;2023-03-01T04:51:41;12.40;;;5.78;;
75774;SDS011;64505;51.458;7.556;2023-03-01T04:53:42;11.18;;;5.97;;
75774;SDS011;64505;51.458;7.556;2023-03-01T04:55:44;12.68;;;6.03;;
75774;SDS011;64505;51.458;7.556;2023-03-01T04:57:45;12.85;;;6.30;;
75774;SDS011;64505;51.458;7.556;2023-03-01T04:59:47;13.20;;;6.30;;
75774;SDS011;64505;51.458;7.556;2023-03-01T05:01:49;14.00;;;6.25;;
75774;SDS011;64505;51.458;7.556;2023-03-01T05:03:51;12.60;;;6.32;;
75774;SDS011;64505;51.458;7.556;2023-03-01T05:05:53;12.00;;;6.15;;
75774;SDS011;64505;51.458;7.556;2023-03-01T05:07:55;11.52;;;6.45;;
75774;SDS011;64505;51.458;7.556;2023-03-01T05:09:58;13.23;;;6.05;;
75774;SDS011;64505;51.458;7.556;2023-03-01T05:11:59;13.60;;;6.43;;
75774;SDS011;64505;51.458;7.556;2023-03-01T05:14:02;13.80;;;6.00;;
75774;SDS011;64505;51.458;7.556;2023-03-01T05:16:04;11.27;;;5.68;;
75774;SDS011;64505;51.458;7.556;2023-03-01T05:18:07;11.43;;;5.60;;
75774;SDS011;64505;51.458;7.556;2023-03-01T05:20:12;12.90;;;7.00;;
75774;SDS011;64505;51.458;7.556;2023-03-01T05:22:14;17.50;;;6.70;;
75774;SDS011;64505;51.458;7.556;2023-03-01T05:24:15;12.43;;;5.97;;
75774;SDS011;64505;51.458;7.556;2023-03-01T05:26:17;11.52;;;5.93;;
75774;SDS011;64505;51.458;7.556;2023-03-01T05:28:39;13.80;;;6.95;;
75774;SDS011;64505;51.458;7.556;2023-03-01T05:30:41;15.13;;;7.07;;
75774;SDS011;64505;51.458;7.556;2023-03-01T05:32:44;13.93;;;6.90;;
75774;SDS011;64505;51.458;7.556;2023-03-01T05:34:48;15.30;;;6.97;;
75774;SDS011;64505;51.458;7.556;2023-03-01T05:36:49;14.70;;;6.65;;
75774;SDS011;64505;51.458;7.556;2023-03-01T05:38:54;11.90;;;6.85;;
75774;SDS011;64505;51.458;7.556;2023-03-01T05:40:56;14.40;;;6.20;;
75774;SDS011;64505;51.458;7.556;2023-03-01T05:42:58;15.13;;;7.00;;
75774;SDS011;64505;51.458;7.556;2023-03-01T05:44:59;12.45;;;6.70;;
75774;SDS011;64505;51.458;7.556;2023-03-01T05:47:00;15.70;;;7.20;;
75774;SDS011;64505;51.458;7.556;2023-03-01T05:49:02;19.35;;;6.95;;
75774;SDS011;64505;51.458;7.556;2023-03-01T05:51:03;16.73;;;7.15;;
75774;SDS011;64505;51.458;7.556;2023-03-01T05:53:12;13.57;;;5.65;;
75774;SDS011;64505;51.458;7.556;2023-03-01T05:55:18;13.40;;;6.03;;
75774;SDS011;64505;51.458;7.556;2023-03-01T05:57:22;11.13;;;6.15;;
75774;SDS011;64505;51.458;7.556;2023-03-01T05:59:23;14.40;;;6.78;;
75774;SDS011;64505;51.458;7.556;2023-03-01T06:01:25;12.88;;;6.53;;
75774;SDS011;64505;51.458;7.556;2023-03-01T06:03:26;10.70;;;5.90;;
75774;SDS011;64505;51.458;7.556;2023-03-01T06:05:28;12.18;;;6.38;;
75774;SDS011;64505;51.458;7.556;2023-03-01T06:07:30;13.85;;;7.25;;
75774;SDS011;64505;51.458;7.556;2023-03-01T06:09:31;13.75;;;6.55;;
75774;SDS011;64505;51.458;7.556;2023-03-01T06:11:36;13.23;;;6.88;;
75774;SDS011;64505;51.458;7.556;2023-03-01T06:13:37;14.40;;;6.32;;
75774;SDS011;64505;51.458;7.556;2023-03-01T06:15:39;14.68;;;7.25;;
75774;SDS011;64505;51.458;7.556;2023-03-01T06:17:41;13.93;;;6.57;;
75774;SDS011;64505;51.458;7.556;2023-03-01T06:19:44;13.52;;;6.57;;
75774;SDS011;64505;51.458;7.556;2023-03-01T06:21:45;15.43;;;6.47;;
75774;SDS011;64505;51.458;7.556;2023-03-01T06:23:46;15.63;;;6.90;;
75774;SDS011;64505;51.458;7.556;2023-03-01T06:25:48;13.57;;;6.35;;
75774;SDS011;64505;51.458;7.556;2023-03-01T06:27:49;15.57;;;6.90;;
75774;SDS011;64505;51.458;7.556;2023-03-01T06:29:53;15.48;;;7.00;;
75774;SDS011;64505;51.458;7.556;2023-03-01T06:31:55;13.60;;;5.95;;
75774;SDS011;64505;51.458;7.556;2023-03-01T06:33:56;12.13;;;5.63;;
75774;SDS011;64505;51.458;7.556;2023-03-01T06:35:57;14.93;;;6.82;;
75774;SDS011;64505;51.458;7.556;2023-03-01T06:38:00;14.93;;;6.72;;
75774;SDS011;64505;51.458;7.556;2023-03-01T06:40:03;18.10;;;7.22;;
75774;SDS011;64505;51.458;7.556;2023-03-01T06:42:09;15.65;;;6.93;;
75774;SDS011;64505;51.458;7.556;2023-03-01T06:44:13;13.60;;;6.72;;
75774;SDS011;64505;51.458;7.556;2023-03-01T06:46:14;12.15;;;6.82;;
75774;SDS011;64505;51.458;7.556;2023-03-01T06:48:16;14.20;;;6.63;;
75774;SDS011;64505;51.458;7.556;2023-03-01T06:50:18;14.55;;;7.10;;
75774;SDS011;64505;51.458;7.556;2023-03-01T06:52:20;15.18;;;6.72;;
75774;SDS011;64505;51.458;7.556;2023-03-01T06:54:21;14.20;;;7.25;;
75774;SDS011;64505;51.458;7.556;2023-03-01T06:56:23;17.10;;;6.97;;
75774;SDS011;64505;51.458;7.556;2023-03-01T06:58:25;18.25;;;7.72;;
75774;SDS011;64505;51.458;7.556;2023-03-01T07:00:26;15.68;;;7.30;;
75774;SDS011;64505;51.458;7.556;2023-03-01T07:02:28;16.02;;;7.43;;
75774;SDS011;64505;51.458;7.556;2023-03-01T07:04:29;14.90;;;7.25;;
75774;SDS011;64505;51.458;7.556;2023-03-01T07:06:31;14.27;;;7.40;;
75774;SDS011;64505;51.458;7.556;2023-03-01T07:08:33;19.00;;;7.30;;
75774;SDS011;64505;51.458;7.556;2023-03-01T07:10:34;17.02;;;7.47;;
75774;SDS011;64505;51.458;7.556;2023-03-01T07:12:36;13.98;;;7.10;;
75774;SDS011;64505;51.458;7.556;2023-03-01T07:14:38;14.05;;;6.88;;
75774;SDS011;64505;51.458;7.556;2023-03-01T07:16:39;16.80;;;7.15;;
75774;SDS011;64505;51.458;7.556;2023-03-01T07:18:40;16.42;;;7.20;;
75774;SDS011;64505;51.458;7.556;2023-03-01T07:20:42;15.40;;;7.88;;
75774;SDS011;64505;51.458;7.556;2023-03-01T07:22:43;15.25;;;7.40;;
75774;SDS011;64505;51.458;7.556;2023-03-01T07:24:45;15.27;;;8.10;;
75774;SDS011;64505;51.458;7.556;2023-03-01T07:26:48;16.55;;;7.15;;
75774;SDS011;64505;51.458;7.556;2023-03-01T07:28:51;18.95;;;8.25;;
75774;SDS011;64505;51.458;7.556;2023-03-01T07:30:52;16.65;;;7.82;;
75774;SDS011;64505;51.458;7.556;2023-03-01T07:32:55;18.48;;;7.30;;
75774;SDS011;64505;51.458;7.556;2023-03-01T07:34:57;21.40;;;7.93;;
75774;SDS011;64505;51.458;7.556;2023-03-01T07:36:59;14.40;;;7.80;;
75774;SDS011;64505;51.458;7.556;2023-03-01T07:39:00;14.38;;;6.90;;
75774;SDS011;64505;51.458;7.556;2023-03-01T07:41:03;15.98;;;6.95;;
75774;SDS011;64505;51.458;7.556;2023-03-01T07:43:06;17.98;;;6.78;;
75774;SDS011;64505;51.458;7.556;2023-03-01T07:45:08;12.68;;;6.60;;
75774;SDS011;64505;51.458;7.556;2023-03-01T07:47:09;13.23;;;6.65;;
75774;SDS011;64505;51.458;7.556;2023-03-01T07:49:11;15.40;;;7.10;;
75774;SDS011;64505;51.458;7.556;2023-03-01T07:51:12;18.30;;;8.05;;
75774;SDS011;64505;51.458;7.556;2023-03-01T07:53:22;16.77;;;6.70;;
75774;SDS011;64505;51.458;7.556;2023-03-01T07:55:23;14.82;;;6.80;;
75774;SDS011;64505;51.458;7.556;2023-03-01T07:57:25;16.00;;;6.50;;
75774;SDS011;64505;51.458;7.556;2023-03-01T07:59:26;16.63;;;6.38;;
75774;SDS011;64505;51.458;7.556;2023-03-01T08:01:30;12.57;;;6.88;;
75774;SDS011;64505;51.458;7.556;2023-03-01T08:03:31;13.30;;;7.03;;
75774;SDS011;64505;51.458;7.556;2023-03-01T08:05:37;15.05;;;7.75;;
75774;SDS011;64505;51.458;7.556;2023-03-01T08:07:39;14.30;;;6.53;;
75774;SDS011;64505;51.458;7.556;2023-03-01T08:09:40;15.13;;;7.72;;
75774;SDS011;64505;51.458;7.556;2023-03-01T08:11:42;14.77;;;7.85;;
75774;SDS011;64505;51.458;7.556;2023-03-01T08:13:43;18.10;;;7.50;;
75774;SDS011;64505;51.458;7.556;2023-03-01T08:15:45;14.90;;;7.50;;
75774;SDS011;64505;51.458;7.556;2023-03-01T08:17:48;15.63;;;7.75;;
75774;SDS011;64505;51.458;7.556;2023-03-01T08:19:51;15.90;;;7.38;;
75774;SDS011;64505;51.458;7.556;2023-03-01T08:21:52;13.00;;;6.97;;
75774;SDS011;64505;51.458;7.556;2023-03-01T08:23:53;13.88;;;6.18;;
75774;SDS011;64505;51.458;7.556;2023-03-01T08:25:57;14.40;;;7.53;;
75774;SDS011;64505;51.458;7.556;2023-03-01T08:28:04;14.73;;;7.05;;
75774;SDS011;64505;51.458;7.556;2023-03-01T08:30:06;15.38;;;7.55;;
75774;SDS011;64505;51.458;7.556;2023-03-01T08:32:08;15.77;;;7.75;;
75774;SDS011;64505;51.458;7.556;2023-03-01T08:34:11;15.35;;;6.97;;
75774;SDS011;64505;51.458;7.556;2023-03-01T08:36:16;18.00;;;7.78;;
75774;SDS011;64505;51.458;7.556;2023-03-01T08:38:18;13.93;;;7.10;;
75774;SDS011;64505;51.458;7.556;2023-03-01T08:40:20;13.93;;;7.57;;
75774;SDS011;64505;51.458;7.556;2023-03-01T08:42:21;16.58;;;7.97;;
75774;SDS011;64505;51.458;7.556;2023-03-01T08:44:22;14.30;;;6.38;;
75774;SDS011;64505;51.458;7.556;2023-03-01T08:46:25;12.32;;;6.47;;
75774;SDS011;64505;51.458;7.556;2023-03-01T08:48:31;14.93;;;7.78;;
75774;SDS011;64505;51.458;7.556;2023-03-01T08:50:32;16.10;;;6.65;;
75774;SDS011;64505;51.458;7.556;2023-03-01T08:52:34;15.52;;;7.63;;
75774;SDS011;64505;51.458;7.556;2023-03-01T08:54:36;13.75;;;6.68;;
75774;SDS011;64505;51.458;7.556;2023-03-01T08:56:37;15.55;;;6.72;;
75774;SDS011;64505;51.458;7.556;2023-03-01T08:58:39;13.50;;;7.05;;
75774;SDS011;64505;51.458;7.556;2023-03-01T09:00:41;13.35;;;7.10;;
75774;SDS011;64505;51.458;7.556;2023-03-01T09:02:42;15.50;;;6.93;;
75774;SDS011;64505;51.458;7.556;2023-03-01T09:04:44;14.80;;;7.25;;
75774;SDS011;64505;51.458;7.556;2023-03-01T09:06:45;13.55;;;6.38;;
75774;SDS011;64505;51.458;7.556;2023-03-01T09:08:47;12.63;;;6.45;;
75774;SDS011;64505;51.458;7.556;2023-03-01T09:10:50;14.80;;;6.50;;
75774;SDS011;64505;51.458;7.556;2023-03-01T09:12:51;12.38;;;5.78;;
75774;SDS011;64505;51.458;7.556;2023-03-01T09:14:53;12.68;;;6.10;;
75774;SDS011;64505;51.458;7.556;2023-03-01T09:16:54;14.05;;;6.55;;
75774;SDS011;64505;51.458;7.556;2023-03-01T09:19:19;17.35;;;7.03;;
75774;SDS011;64505;51.458;7.556;2023-03-01T09:21:21;11.95;;;6.90;;
75774;SDS011;64505;51.458;7.556;2023-03-01T09:23:41;14.98;;;6.85;;
75774;SDS011;64505;51.458;7.556;2023-03-01T09:25:47;18.15;;;7.15;;
75774;SDS011;64505;51.458;7.556;2023-03-01T09:27:52;14.25;;;5.50;;
75774;SDS011;64505;51.458;7.556;2023-03-01T09:29:53;19.00;;;6.57;;
75774;SDS011;64505;51.458;7.556;2023-03-01T09:31:57;10.23;;;5.72;;
75774;SDS011;64505;51.458;7.556;2023-03-01T09:33:59;10.70;;;5.75;;
75774;SDS011;64505;51.458;7.556;2023-03-01T09:36:02;11.43;;;5.95;;
75774;SDS011;64505;51.458;7.556;2023-03-01T09:38:06;12.15;;;5.95;;
75774;SDS011;64505;51.458;7.556;2023-03-01T09:40:09;11.32;;;5.78;;
75774;SDS011;64505;51.458;7.556;2023-03-01T09:42:16;11.77;;;4.95;;
75774;SDS011;64505;51.458;7.556;2023-03-01T09:44:20;10.63;;;5.82;;
75774;SDS011;64505;51.458;7.556;2023-03-01T09:46:34;9.15;;;4.57;;
75774;SDS011;64505;51.458;7.556;2023-03-01T09:48:44;8.13;;;4.43;;
75774;SDS011;64505;51.458;7.556;2023-03-01T09:55:00;9.63;;;4.47;;
75774;SDS011;64505;51.458;7.556;2023-03-01T09:59:48;9.48;;;4.82;;
75774;SDS011;64505;51.458;7.556;2023-03-01T10:09:12;9.50;;;5.25;;
75774;SDS011;64505;51.458;7.556;2023-03-01T10:11:21;10.18;;;4.80;;
75774;SDS011;64505;51.458;7.556;2023-03-01T10:16:21;12.15;;;5.90;;
75774;SDS011;64505;51.458;7.556;2023-03-01T10:18:29;9.57;;;5.18;;
75774;SDS011;64505;51.458;7.556;2023-03-01T10:20:42;11.32;;;5.10;;
75774;SDS011;64505;51.458;7.556;2023-03-01T10:22:49;10.75;;;4.93;;
75774;SDS011;64505;51.458;7.556;2023-03-01T10:24:53;11.52;;;5.50;;
75774;SDS011;64505;51.458;7.556;2023-03-01T10:26:57;9.32;;;5.18;;
75774;SDS011;64505;51.458;7.556;2023-03-01T10:29:04;12.77;;;5.90;;
75774;SDS011;64505;51.458;7.556;2023-03-01T10:31:12;9.63;;;5.28;;
75774;SDS011;64505;51.458;7.556;2023-03-01T10:33:17;10.00;;;5.53;;
75774;SDS011;64505;51.458;7.556;2023-03-01T10:35:24;11.65;;;5.30;;
75774;SDS011;64505;51.458;7.556;2023-03-01T10:37:28;11.48;;;5.22;;
75774;SDS011;64505;51.458;7.556;2023-03-01T10:39:30;9.77;;;5.25;;
75774;SDS011;64505;51.458;7.556;2023-03-01T10:41:33;10.98;;;6.28;;
75774;SDS011;64505;51.458;7.556;2023-03-01T10:45:47;11.23;;;5.32;;
75774;SDS011;64505;51.458;7.556;2023-03-01T10:48:01;10.63;;;5.70;;
75774;SDS011;64505;51.458;7.556;2023-03-01T10:50:22;11.65;;;5.55;;
75774;SDS011;64505;51.458;7.556;2023-03-01T10:52:26;10.63;;;5.80;;
75774;SDS011;64505;51.458;7.556;2023-03-01T10:54:36;10.52;;;4.97;;
75774;SDS011;64505;51.458;7.556;2023-03-01T10:56:50;10.18;;;5.30;;
75774;SDS011;64505;51.458;7.556;2023-03-01T11:01:02;9.68;;;5.00;;
75774;SDS011;64505;51.458;7.556;2023-03-01T11:03:10;10.20;;;5.13;;
75774;SDS011;64505;51.458;7.556;2023-03-01T11:05:19;10.98;;;6.03;;
75774;SDS011;64505;51.458;7.556;2023-03-01T11:07:25;15.02;;;5.70;;
75774;SDS011;64505;51.458;7.556;2023-03-01T11:09:29;11.18;;;5.78;;
75774;SDS011;64505;51.458;7.556;2023-03-01T11:11:38;10.13;;;5.53;;
75774;SDS011;64505;51.458;7.556;2023-03-01T11:13:53;10.68;;;5.43;;
75774;SDS011;64505;51.458;7.556;2023-03-01T11:16:06;11.13;;;5.85;;
75774;SDS011;64505;51.458;7.556;2023-03-01T11:18:18;11.07;;;5.13;;
75774;SDS011;64505;51.458;7.556;2023-03-01T11:20:40;11.57;;;5.25;;
75774;SDS011;64505;51.458;7.556;2023-03-01T11:22:45;10.20;;;5.22;;
75774;SDS011;64505;51.458;7.556;2023-03-01T11:24:50;9.25;;;5.60;;
75774;SDS011;64505;51.458;7.556;2023-03-01T11:29:36;10.43;;;4.90;;
75774;SDS011;64505;51.458;7.556;2023-03-01T11:31:49;12.45;;;5.50;;
75774;SDS011;64505;51.458;7.556;2023-03-01T11:34:00;9.32;;;5.30;;
75774;SDS011;64505;51.458;7.556;2023-03-01T11:38:27;12.20;;;5.97;;
75774;SDS011;64505;51.458;7.556;2023-03-01T11:43:03;12.10;;;5.63;;
75774;SDS011;64505;51.458;7.556;2023-03-01T11:45:12;9.55;;;4.97;;
75774;SDS011;64505;51.458;7.556;2023-03-01T11:47:16;14.60;;;5.65;;
75774;SDS011;64505;51.458;7.556;2023-03-01T11:49:52;11.07;;;5.53;;
75774;SDS011;64505;51.458;7.556;2023-03-01T11:54:45;12.45;;;5.45;;
75774;SDS011;64505;51.458;7.556;2023-03-01T11:56:55;10.63;;;5.13;;
75774;SDS011;64505;51.458;7.556;2023-03-01T12:01:18;10.70;;;5.55;;
75774;SDS011;64505;51.458;7.556;2023-03-01T12:13:20;10.65;;;4.88;;
75774;SDS011;64505;51.458;7.556;2023-03-01T12:17:56;10.63;;;5.35;;
75774;SDS011;64505;51.458;7.556;2023-03-01T12:22:30;9.25;;;4.80;;
75774;SDS011;64505;51.458;7.556;2023-03-01T12:24:43;10.38;;;5.40;;
75774;SDS011;64505;51.458;7.556;2023-03-01T12:26:58;12.05;;;5.97;;
75774;SDS011;64505;51.458;7.556;2023-03-01T12:29:37;13.02;;;5.78;;
75774;SDS011;64505;51.458;7.556;2023-03-01T12:50:18;9.25;;;4.80;;
75774;SDS011;64505;51.458;7.556;2023-03-01T12:52:43;12.73;;;5.38;;
75774;SDS011;64505;51.458;7.556;2023-03-01T12:54:47;11.30;;;5.82;;
75774;SDS011;64505;51.458;7.556;2023-03-01T12:56:51;11.32;;;5.13;;
75774;SDS011;64505;51.458;7.556;2023-03-01T13:01:26;11.13;;;5.40;;
75774;SDS011;64505;51.458;7.556;2023-03-01T13:06:15;9.93;;;5.15;;
75774;SDS011;64505;51.458;7.556;2023-03-01T13:08:42;11.60;;;5.32;;
75774;SDS011;64505;51.458;7.556;2023-03-01T13:10:58;13.80;;;6.18;;
75774;SDS011;64505;51.458;7.556;2023-03-01T13:13:12;9.50;;;4.85;;
75774;SDS011;64505;51.458;7.556;2023-03-01T13:17:30;9.30;;;4.95;;
75774;SDS011;64505;51.458;7.556;2023-03-01T13:19:34;10.70;;;5.35;;
75774;SDS011;64505;51.458;7.556;2023-03-01T13:21:37;8.80;;;4.85;;
75774;SDS011;64505;51.458;7.556;2023-03-01T13:23:38;10.65;;;5.20;;
75774;SDS011;64505;51.458;7.556;2023-03-01T13:32:40;8.65;;;4.30;;
75774;SDS011;64505;51.458;7.556;2023-03-01T13:34:46;9.40;;;4.60;;
75774;SDS011;64505;51.458;7.556;2023-03-01T13:36:49;8.65;;;4.45;;
75774;SDS011;64505;51.458;7.556;2023-03-01T13:40:57;9.00;;;4.95;;
75774;SDS011;64505;51.458;7.556;2023-03-01T13:42:59;9.82;;;4.63;;
75774;SDS011;64505;51.458;7.556;2023-03-01T13:45:40;9.07;;;4.57;;
75774;SDS011;64505;51.458;7.556;2023-03-01T13:47:44;13.00;;;4.70;;
75774;SDS011;64505;51.458;7.556;2023-03-01T13:50:00;9.35;;;4.75;;